Time;durP1;ratioP1;P1;durP2;ratioP2;P2;SDS_P1;SDS_P2;PMS_P1;PMS_P2;Temp;Humidity;BMP_temperature;BMP_pressure;BME280_temperature;BME280_humidity;BME280_pressure;Samples;Min_cycle;Max_cycle;Signal;HPM_P1;HPM_P2
2022/09/23 00:00:40;;;;;;;7.15;3.45;;;12.40;99.90;;;;;;4912927;29;20036;-89
2022/09/23 00:03:06;;;;;;;5.32;3.47;;;;;;;;;;4922170;29;20028;-87
2022/09/23 00:05:32;;;;;;;4.30;3.05;;;;;;;;;;4932865;29;20036;-88
2022/09/23 00:07:59;;;;;;;5.90;3.13;;;;;;;;;;4931495;29;20023;-88
2022/09/23 00:10:26;;;;;;;8.32;3.28;;;12.30;99.90;;;;;;4931674;29;20043;-89
2022/09/23 00:12:53;;;;;;;4.78;3.03;;;12.30;99.90;;;;;;4933816;29;20038;-88
2022/09/23 00:15:20;;;;;;;4.68;2.88;;;12.40;99.90;;;;;;4925270;29;20513;-88
2022/09/23 00:17:46;;;;;;;6.55;3.20;;;;;;;;;;4931539;29;20054;-88
2022/09/23 00:20:13;;;;;;;7.30;3.20;;;12.40;99.90;;;;;;4914067;29;20123;-88
2022/09/23 00:22:39;;;;;;;7.05;3.40;;;14.40;99.90;;;;;;4913899;29;20024;-88
2022/09/23 00:25:10;;;;;;;8.52;3.30;;;14.30;99.90;;;;;;4912681;29;20063;-88
2022/09/23 00:27:36;;;;;;;5.00;3.08;;;;;;;;;;4913910;29;20035;-87
2022/09/23 00:30:05;;;;;;;7.60;3.40;;;10.70;99.90;;;;;;4917962;29;20040;-88
2022/09/23 00:32:31;;;;;;;11.07;3.70;;;;;;;;;;4918623;29;20024;-89
2022/09/23 00:34:57;;;;;;;6.03;3.42;;;;;;;;;;4920896;29;20039;-88
2022/09/23 00:37:23;;;;;;;7.20;3.40;;;;;;;;;;4934479;29;20167;-88
2022/09/23 00:39:49;;;;;;;9.98;3.47;;;;;;;;;;4936460;29;20036;-89
2022/09/23 00:42:19;;;;;;;5.78;3.22;;;12.10;99.90;;;;;;4935276;29;20063;-88
2022/09/23 00:44:56;;;;;;;7.57;3.60;;;9.90;99.90;;;;;;4923709;29;20388;-89
2022/09/23 00:47:22;;;;;;;5.82;3.20;;;;;;;;;;4916944;29;20499;-88
2022/09/23 00:50:04;;;;;;;9.23;3.60;;;12.10;99.90;;;;;;4917015;29;20504;-89
2022/09/23 00:52:31;;;;;;;6.65;3.72;;;;;;;;;;4920366;29;20035;-89
2022/09/23 00:54:59;;;;;;;9.70;3.83;;;11.70;99.90;;;;;;4936096;29;20550;-90
2022/09/23 00:57:26;;;;;;;6.53;3.30;;;11.80;99.90;;;;;;4925967;29;20024;-89
2022/09/23 00:59:52;;;;;;;7.90;3.80;;;;;;;;;;4916597;29;20032;-89
2022/09/23 01:02:19;;;;;;;6.10;3.83;;;11.90;99.90;;;;;;4917258;29;20047;-88
2022/09/23 01:04:48;;;;;;;8.90;3.57;;;11.90;99.90;;;;;;4918092;29;20103;-89
2022/09/23 01:07:14;;;;;;;6.50;3.63;;;;;;;;;;4916980;29;20080;-88
2022/09/23 01:09:40;;;;;;;7.88;3.47;;;;;;;;;;4916977;29;20040;-89
2022/09/23 01:12:33;;;;;;;8.18;3.40;;;11.80;99.90;;;;;;4917327;29;20036;-91
2022/09/23 01:15:32;;;;;;;6.00;3.70;;;10.00;99.90;;;;;;4916571;29;20032;-88
2022/09/23 01:18:09;;;;;;;8.73;3.72;;;12.90;99.90;;;;;;4917080;29;20488;-89
2022/09/23 01:20:53;;;;;;;10.23;3.50;;;10.20;99.90;;;;;;4924018;29;20107;-89
2022/09/23 01:23:44;;;;;;;7.43;3.85;;;12.00;99.90;;;;;;4932309;29;21555;-89
2022/09/23 01:26:55;;;;;;;6.72;3.50;;;9.90;99.90;;;;;;4928358;29;20028;-87
2022/09/23 01:29:42;;;;;;;4.30;3.47;;;12.00;99.90;;;;;;4926721;29;20048;-88
2022/09/23 01:32:24;;;;;;;6.87;3.90;;;14.40;99.90;;;;;;4915052;29;20091;-89
2022/09/23 01:35:16;;;;;;;5.15;3.60;;;14.20;99.90;;;;;;4931798;29;20035;-89
2022/09/23 01:38:05;;;;;;;5.35;3.80;;;14.00;99.90;;;;;;4934049;29;20024;-89
2022/09/23 01:40:49;;;;;;;4.13;3.72;;;12.70;99.90;;;;;;4931118;29;20067;-89
2022/09/23 01:43:29;;;;;;;5.60;3.97;;;13.50;99.90;;;;;;4935422;29;20027;-88
2022/09/23 01:46:01;;;;;;;7.28;4.07;;;12.30;99.90;;;;;;4934566;29;20052;-89
2022/09/23 01:48:38;;;;;;;9.45;4.40;;;10.40;99.90;;;;;;4934189;29;20080;-88
2022/09/23 01:51:04;;;;;;;5.93;3.90;;;12.40;99.90;;;;;;4933420;29;20047;-88
2022/09/23 01:53:37;;;;;;;8.52;4.10;;;12.40;99.90;;;;;;4934936;29;20381;-89
2022/09/23 01:56:41;;;;;;;8.32;4.55;;;10.80;99.90;;;;;;4934631;29;20155;-90
2022/09/23 01:59:30;;;;;;;10.68;4.05;;;12.40;99.90;;;;;;4904567;29;20054;-88
2022/09/23 02:01:56;;;;;;;6.85;3.83;;;;;;;;;;4933917;29;20484;-88
2022/09/23 02:04:29;;;;;;;10.85;4.88;;;12.40;99.90;;;;;;4934919;29;20036;-90
2022/09/23 02:07:14;;;;;;;7.05;4.25;;;12.40;99.90;;;;;;4930896;29;20493;-90
2022/09/23 02:09:44;;;;;;;6.55;3.97;;;12.40;99.90;;;;;;4914782;29;20164;-84
2022/09/23 02:12:15;;;;;;;8.15;3.55;;;11.10;99.90;;;;;;4914388;29;20469;-84
2022/09/23 02:14:49;;;;;;;7.63;4.05;;;14.50;99.90;;;;;;4913371;29;20065;-84
2022/09/23 02:17:25;;;;;;;8.10;4.10;;;9.80;99.90;;;;;;4915632;29;20040;-85
2022/09/23 02:19:56;;;;;;;3.63;3.25;;;12.20;99.90;;;;;;4916049;29;20040;-87
2022/09/23 02:22:38;;;;;;;5.18;3.65;;;12.30;99.90;;;;;;4926488;29;20503;-86
2022/09/23 02:25:05;;;;;;;5.93;3.30;;;11.90;99.90;;;;;;4914101;29;20111;-87
2022/09/23 02:27:46;;;;;;;4.35;3.17;;;12.50;99.90;;;;;;4926880;29;20559;-86
2022/09/23 02:30:21;;;;;;;9.65;3.50;;;12.50;99.90;;;;;;4931802;29;20031;-86
2022/09/23 02:33:19;;;;;;;6.97;3.30;;;12.50;99.90;;;;;;4933273;29;20031;-86
2022/09/23 02:35:53;;;;;;;5.63;3.58;;;10.80;99.90;;;;;;4932965;29;20050;-86
2022/09/23 02:38:43;;;;;;;7.50;3.67;;;15.60;99.90;;;;;;4932827;29;20035;-86
2022/09/23 02:41:17;;;;;;;6.78;3.63;;;12.60;99.90;;;;;;4932790;29;20039;-86
2022/09/23 02:44:01;;;;;;;5.72;3.30;;;14.20;99.90;;;;;;4932581;29;20075;-85
2022/09/23 02:46:31;;;;;;;6.03;3.70;;;12.60;99.90;;;;;;4932279;29;20023;-87
2022/09/23 02:49:21;;;;;;;6.30;3.70;;;12.60;99.90;;;;;;4933552;29;20027;-86
2022/09/23 02:51:46;;;;;;;7.88;3.33;;;10.70;99.90;;;;;;4925969;29;20496;-87
2022/09/23 02:54:15;;;;;;;6.93;3.45;;;12.60;99.90;;;;;;4926597;29;20066;-86
2022/09/23 02:56:41;;;;;;;5.90;3.65;;;;;;;;;;4931380;29;20057;-88
2022/09/23 02:59:08;;;;;;;5.72;3.10;;;12.60;99.90;;;;;;4932680;29;20055;-86
2022/09/23 03:01:34;;;;;;;11.35;4.00;;;;;;;;;;4931345;29;20035;-87
2022/09/23 03:04:30;;;;;;;10.18;4.00;;;12.30;99.90;;;;;;4932283;29;20024;-86
2022/09/23 03:07:00;;;;;;;6.32;3.78;;;12.40;99.90;;;;;;4932622;29;20027;-84
2022/09/23 03:09:34;;;;;;;6.82;3.60;;;11.00;99.90;;;;;;4919768;29;20028;-84
2022/09/23 03:12:24;;;;;;;6.63;3.83;;;12.50;99.90;;;;;;4933308;29;20046;-84
2022/09/23 03:15:16;;;;;;;6.55;3.53;;;15.10;99.90;;;;;;4919200;29;20123;-84
2022/09/23 03:18:07;;;;;;;7.57;3.55;;;12.60;99.90;;;;;;4898255;29;20047;-84
2022/09/23 03:20:37;;;;;;;5.35;3.03;;;14.50;99.90;;;;;;4913353;29;20120;-84
2022/09/23 03:23:07;;;;;;;10.63;3.20;;;12.70;99.90;;;;;;4912670;29;20030;-84
2022/09/23 03:25:37;;;;;;;6.63;3.80;;;12.80;99.90;;;;;;4915017;29;20028;-84
2022/09/23 03:28:07;;;;;;;5.70;3.25;;;12.90;99.90;;;;;;4932955;29;20107;-84
2022/09/23 03:30:36;;;;;;;8.32;3.53;;;11.60;99.90;;;;;;4931686;29;20123;-84
2022/09/23 03:33:06;;;;;;;6.68;3.38;;;12.80;99.90;;;;;;4933057;29;20119;-84
2022/09/23 03:36:48;;;;;;;7.50;3.72;;;12.90;99.90;;;;;;4932663;29;20027;-85
2022/09/23 03:38:25;;;;;;;10.38;3.88;;;12.90;99.90;;;;;;4931738;29;20486;-85
2022/09/23 03:40:54;;;;;;;9.40;3.90;;;10.90;99.90;;;;;;4931696;29;20090;-84
2022/09/23 03:43:20;;;;;;;6.70;3.90;;;13.00;99.90;;;;;;4930384;29;20127;-84
2022/09/23 03:45:46;;;;;;;6.60;3.70;;;;;;;;;;4930409;29;20125;-86
2022/09/23 03:48:14;;;;;;;7.25;3.70;;;;;;;;;;4927296;29;20027;-84
2022/09/23 03:50:40;;;;;;;8.32;3.90;;;13.00;99.90;;;;;;4922206;29;20365;-85
2022/09/23 03:53:06;;;;;;;6.35;3.67;;;12.90;99.90;;;;;;4927043;29;20047;-85
2022/09/23 03:55:33;;;;;;;4.57;3.58;;;13.00;99.90;;;;;;4932180;29;20071;-85
2022/09/23 03:58:01;;;;;;;7.32;3.40;;;;;;;;;;4930929;29;20024;-85
2022/09/23 04:00:27;;;;;;;6.83;3.50;;;;;;;;;;4930133;29;20031;-85
2022/09/23 04:02:52;;;;;;;7.25;3.90;;;12.80;99.90;;;;;;4933342;29;20030;-85
2022/09/23 04:05:18;;;;;;;6.15;3.30;;;;;;;;;;4934619;29;20031;-84
2022/09/23 04:07:44;;;;;;;7.10;3.80;;;;;;;;;;4935625;29;20031;-84
2022/09/23 04:10:10;;;;;;;11.50;3.97;;;12.70;99.90;;;;;;4920669;29;20035;-85
2022/09/23 04:12:37;;;;;;;8.48;4.80;;;12.70;99.90;;;;;;4916945;29;20043;-85
2022/09/23 04:15:03;;;;;;;5.43;4.20;;;12.60;99.90;;;;;;4927526;29;20456;-84
2022/09/23 04:17:29;;;;;;;11.55;4.80;;;;;;;;;;4932356;29;20031;-85
2022/09/23 04:19:55;;;;;;;9.38;4.68;;;;;;;;;;4924625;29;20393;-84
2022/09/23 04:22:21;;;;;;;5.70;4.55;;;12.50;99.90;;;;;;4914758;29;20028;-84
2022/09/23 04:24:46;;;;;;;7.82;4.30;;;13.10;99.90;;;;;;4916097;29;20028;-84
2022/09/23 04:27:12;;;;;;;9.38;4.57;;;;;;;;;;4910207;29;20335;-84
2022/09/23 04:29:38;;;;;;;15.85;3.85;;;12.50;99.90;;;;;;4928398;29;20024;-84
2022/09/23 04:32:04;;;;;;;7.28;4.63;;;11.20;99.90;;;;;;4928513;29;20103;-84
2022/09/23 04:34:29;;;;;;;7.80;4.10;;;12.50;99.90;;;;;;4927866;29;20035;-85
2022/09/23 04:36:55;;;;;;;6.55;4.20;;;13.20;99.90;;;;;;4927280;29;20075;-84
2022/09/23 04:39:21;;;;;;;5.07;4.10;;;;;;;;;;4926643;29;20379;-84
2022/09/23 04:41:46;;;;;;;6.53;4.43;;;12.50;99.90;;;;;;4929431;29;20020;-84
2022/09/23 04:44:13;;;;;;;11.68;4.80;;;12.60;99.90;;;;;;4932753;29;20377;-84
2022/09/23 04:46:41;;;;;;;11.15;4.57;;;12.60;99.90;;;;;;4929577;29;20043;-83
2022/09/23 04:49:07;;;;;;;12.70;4.70;;;12.50;99.90;;;;;;4934149;29;20484;-86
2022/09/23 04:51:33;;;;;;;12.90;4.57;;;;;;;;;;4928607;29;20038;-85
2022/09/23 04:53:59;;;;;;;8.02;4.38;;;12.60;99.90;;;;;;4928287;29;20031;-87
2022/09/23 04:56:27;;;;;;;8.15;4.35;;;12.60;99.90;;;;;;4933216;29;20555;-84
2022/09/23 04:58:53;;;;;;;;;;;12.60;99.90;;;;;;4934118;29;20024;-85
2022/09/23 05:01:25;;;;;;;4.85;3.78;;;12.40;99.90;;;;;;4935152;29;20389;-85
2022/09/23 05:04:02;;;;;;;6.40;3.90;;;13.50;99.90;;;;;;4935377;29;20103;-85
2022/09/23 05:06:30;;;;;;;7.22;4.32;;;12.50;99.90;;;;;;4934464;29;20027;-83
2022/09/23 05:08:57;;;;;;;7.82;4.60;;;12.60;99.90;;;;;;4934463;29;20035;-85
2022/09/23 05:11:24;;;;;;;8.55;4.40;;;12.50;99.90;;;;;;4934525;29;20030;-85
2022/09/23 05:13:52;;;;;;;8.27;3.95;;;12.60;99.90;;;;;;4933724;29;20035;-84
2022/09/23 05:16:18;;;;;;;6.68;4.10;;;12.60;99.90;;;;;;4934337;29;20156;-85
2022/09/23 05:18:45;;;;;;;6.50;4.18;;;12.60;99.90;;;;;;4934321;29;20103;-84
2022/09/23 05:21:15;;;;;;;8.85;3.90;;;12.60;99.90;;;;;;4934069;29;20028;-84
2022/09/23 05:23:45;;;;;;;5.70;3.90;;;12.60;99.90;;;;;;4934227;29;20103;-87
2022/09/23 05:26:12;;;;;;;6.80;4.10;;;12.50;99.90;;;;;;4934331;29;20036;-85
2022/09/23 05:28:38;;;;;;;5.78;4.50;;;12.40;99.90;;;;;;4935190;29;20028;-87
2022/09/23 05:31:14;;;;;;;11.38;4.15;;;12.50;99.90;;;;;;4934268;29;20402;-86
2022/09/23 05:33:43;;;;;;;5.82;4.00;;;12.40;99.90;;;;;;4934542;29;20115;-84
2022/09/23 05:36:08;;;;;;;;;;;12.30;99.90;;;;;;4934372;29;20160;-85
2022/09/23 05:38:35;;;;;;;8.30;4.35;;;12.40;99.90;;;;;;4934018;29;19936;-87
2022/09/23 05:41:03;;;;;;;8.00;3.92;;;12.40;99.90;;;;;;4934055;29;20236;-85
2022/09/23 05:43:29;;;;;;;;;;;12.50;99.90;;;;;;4934374;29;20032;-86
2022/09/23 05:46:18;;;;;;;6.50;3.92;;;12.50;99.90;;;;;;4932932;29;19910;-87
2022/09/23 05:48:44;;;;;;;6.85;4.10;;;12.40;99.90;;;;;;4932649;29;20120;-85
2022/09/23 05:51:17;;;;;;;6.38;3.97;;;12.40;99.90;;;;;;4934692;29;20094;-86
2022/09/23 05:53:46;;;;;;;6.20;3.60;;;12.40;99.90;;;;;;4933960;29;20031;-85
2022/09/23 05:56:13;;;;;;;6.28;3.80;;;12.20;99.90;;;;;;4933656;29;20576;-86
2022/09/23 05:58:39;;;;;;;7.50;3.78;;;12.20;99.90;;;;;;4934534;29;20032;-86
2022/09/23 06:01:12;;;;;;;8.98;3.40;;;12.20;99.90;;;;;;4932276;29;20027;-87
2022/09/23 06:03:38;;;;;;;6.18;4.10;;;;;;;;;;4933082;29;20024;-85
2022/09/23 06:06:05;;;;;;;9.00;4.20;;;12.40;99.90;;;;;;4933574;29;20024;-88
2022/09/23 06:08:33;;;;;;;7.22;4.85;;;12.30;99.90;;;;;;4933553;29;20055;-86
2022/09/23 06:11:05;;;;;;;7.80;4.10;;;12.30;99.90;;;;;;4933440;29;20153;-87
2022/09/23 06:13:32;;;;;;;9.23;4.28;;;12.30;99.90;;;;;;4933414;29;20043;-86
2022/09/23 06:15:58;;;;;;;6.97;4.18;;;12.20;99.90;;;;;;4933210;29;20476;-86
2022/09/23 06:18:23;;;;;;;6.78;4.28;;;12.20;99.90;;;;;;4933235;29;20102;-87
2022/09/23 06:20:49;;;;;;;9.68;4.82;;;12.20;99.90;;;;;;4933443;29;20171;-87
2022/09/23 06:23:15;;;;;;;7.95;4.47;;;12.20;99.90;;;;;;4932379;29;20063;-87
2022/09/23 06:25:40;;;;;;;9.32;4.65;;;12.40;99.90;;;;;;4933120;29;20030;-87
2022/09/23 06:28:11;;;;;;;7.50;4.43;;;12.40;99.90;;;;;;4933027;29;20119;-86
2022/09/23 06:30:38;;;;;;;6.75;4.40;;;12.50;99.90;;;;;;4931718;29;20385;-86
2022/09/23 06:33:04;;;;;;;6.18;4.65;;;12.40;99.90;;;;;;4931590;29;20499;-86
2022/09/23 06:35:32;;;;;;;8.93;5.10;;;12.50;99.90;;;;;;4932755;29;20031;-86
2022/09/23 06:37:58;;;;;;;7.70;4.85;;;12.40;99.90;;;;;;4931812;29;20028;-87
2022/09/23 06:40:24;;;;;;;8.75;4.30;;;12.40;99.90;;;;;;4931568;29;20035;-86
2022/09/23 06:42:58;;;;;;;6.80;5.00;;;12.50;99.90;;;;;;4932873;29;20031;-87
2022/09/23 06:45:24;;;;;;;7.82;4.38;;;12.40;99.90;;;;;;4932772;29;20027;-84
2022/09/23 06:47:56;;;;;;;11.88;4.57;;;12.50;99.90;;;;;;4933108;29;20488;-88
2022/09/23 06:50:24;;;;;;;10.07;4.60;;;12.60;99.90;;;;;;4933215;29;20030;-87
2022/09/23 06:52:54;;;;;;;10.88;4.65;;;12.60;99.90;;;;;;4932779;29;20047;-86
2022/09/23 06:55:22;;;;;;;16.98;5.25;;;12.50;99.90;;;;;;4932611;29;20028;-86
2022/09/23 06:57:48;;;;;;;13.23;4.60;;;;;;;;;;4932585;29;20027;-86
2022/09/23 07:00:14;;;;;;;6.78;4.47;;;12.70;99.90;;;;;;4933108;29;20291;-84
2022/09/23 07:02:41;;;;;;;11.23;5.25;;;12.70;99.90;;;;;;4933321;29;20082;-86
2022/09/23 07:05:08;;;;;;;8.07;5.10;;;12.80;99.90;;;;;;4932586;29;20031;-86
2022/09/23 07:07:36;;;;;;;10.57;4.70;;;12.90;99.90;;;;;;4932567;29;20019;-87
2022/09/23 07:10:02;;;;;;;8.43;5.13;;;;;;;;;;4932456;29;20030;-87
2022/09/23 07:12:28;;;;;;;7.65;4.95;;;12.90;99.90;;;;;;4932433;29;20039;-86
2022/09/23 07:14:53;;;;;;;13.95;5.95;;;13.00;99.90;;;;;;4932300;29;20036;-87
2022/09/23 07:17:19;;;;;;;14.57;5.57;;;;;;;;;;4932283;29;20062;-86
2022/09/23 07:19:45;;;;;;;8.32;5.65;;;13.20;99.90;;;;;;4931498;29;20464;-85
2022/09/23 07:22:11;;;;;;;12.90;5.88;;;;;;;;;;4933227;29;20102;-87
2022/09/23 07:24:37;;;;;;;13.02;5.65;;;13.20;99.90;;;;;;4931059;29;20027;-85
2022/09/23 07:27:04;;;;;;;11.68;5.57;;;12.70;99.90;;;;;;4932201;29;20046;-87
2022/09/23 07:29:30;;;;;;;8.60;4.88;;;12.90;99.90;;;;;;4931013;29;20484;-87
2022/09/23 07:31:56;;;;;;;12.35;5.20;;;13.00;99.90;;;;;;4932248;29;20111;-87
2022/09/23 07:34:21;;;;;;;9.82;6.15;;;13.00;99.90;;;;;;4932156;29;20039;-86
2022/09/23 07:36:47;;;;;;;6.95;5.70;;;;;;;;;;4932575;29;20032;-86
2022/09/23 07:39:13;;;;;;;9.70;6.07;;;12.70;99.90;;;;;;4933974;29;20063;-86
2022/09/23 07:41:43;;;;;;;8.32;5.68;;;12.80;99.90;;;;;;4931911;29;20472;-86
2022/09/23 07:44:10;;;;;;;11.52;6.10;;;13.00;99.90;;;;;;4931758;29;20090;-86
2022/09/23 07:46:36;;;;;;;14.30;6.78;;;13.00;99.90;;;;;;4930687;29;20507;-85
2022/09/23 07:49:04;;;;;;;11.40;6.25;;;12.90;99.90;;;;;;4931985;29;20034;-87
2022/09/23 07:51:33;;;;;;;8.10;6.18;;;13.00;99.90;;;;;;4932014;29;20024;-87
2022/09/23 07:53:59;;;;;;;8.45;6.13;;;;;;;;;;4931886;29;20106;-87
2022/09/23 07:56:28;;;;;;;8.95;6.32;;;12.90;99.90;;;;;;4931760;29;20035;-87
2022/09/23 07:59:00;;;;;;;12.55;7.43;;;12.90;99.90;;;;;;4931820;29;20159;-88
2022/09/23 08:01:34;;;;;;;12.05;6.72;;;12.80;99.90;;;;;;4932046;29;20031;-85
2022/09/23 08:04:05;;;;;;;11.73;6.70;;;13.00;99.90;;;;;;4931859;29;20111;-87
2022/09/23 08:06:32;;;;;;;11.75;6.22;;;13.20;99.90;;;;;;4931888;29;20102;-86
2022/09/23 08:08:59;;;;;;;10.35;6.80;;;13.50;99.90;;;;;;4930540;29;20075;-87
2022/09/23 08:11:25;;;;;;;10.98;7.00;;;13.40;99.90;;;;;;4930434;29;20114;-87
2022/09/23 08:13:52;;;;;;;9.63;6.80;;;13.60;99.90;;;;;;4931816;29;20020;-87
2022/09/23 08:16:21;;;;;;;13.93;6.93;;;13.80;99.90;;;;;;4932451;29;20556;-87
2022/09/23 08:18:46;;;;;;;11.00;6.75;;;13.90;99.90;;;;;;4932562;29;20083;-87
2022/09/23 08:21:19;;;;;;;12.00;6.93;;;13.90;99.90;;;;;;4931554;29;20027;-87
2022/09/23 08:23:45;;;;;;;11.25;7.10;;;14.00;99.90;;;;;;4932623;29;20023;-87
2022/09/23 08:26:12;;;;;;;10.07;6.32;;;;;;;;;;4931719;29;20087;-87
2022/09/23 08:28:37;;;;;;;13.82;7.25;;;14.10;99.90;;;;;;4930389;29;20055;-88
2022/09/23 08:31:03;;;;;;;16.20;7.53;;;14.20;99.90;;;;;;4930516;29;20063;-86
2022/09/23 08:33:30;;;;;;;12.85;7.25;;;;;;;;;;4932906;29;20064;-86
2022/09/23 08:36:02;;;;;;;8.20;6.88;;;14.10;99.90;;;;;;4932121;29;20067;-88
2022/09/23 08:38:29;;;;;;;10.07;7.45;;;14.20;99.90;;;;;;4931539;29;20448;-86
2022/09/23 08:41:15;;;;;;;11.32;7.65;;;14.20;99.90;;;;;;4931475;29;20031;-88
2022/09/23 08:43:46;;;;;;;12.93;7.72;;;14.30;99.90;;;;;;4931461;29;20032;-87
2022/09/23 08:46:18;;;;;;;11.75;7.28;;;14.30;99.90;;;;;;4930142;29;20043;-86
2022/09/23 08:48:47;;;;;;;15.77;8.20;;;13.70;99.90;;;;;;4933096;29;20098;-87
2022/09/23 08:51:20;;;;;;;13.50;7.97;;;14.30;99.90;;;;;;4934917;29;20484;-87
2022/09/23 08:53:46;;;;;;;11.10;8.13;;;;;;;;;;4935966;29;20019;-86
2022/09/23 08:56:31;;;;;;;12.05;8.27;;;14.20;99.90;;;;;;4934821;29;20035;-87
2022/09/23 08:59:14;;;;;;;13.50;8.45;;;14.30;99.90;;;;;;4934795;29;20650;-87
2022/09/23 09:02:17;;;;;;;17.58;8.40;;;14.50;99.90;;;;;;4933358;29;20030;-87
2022/09/23 09:04:52;;;;;;;10.50;7.60;;;14.60;99.90;;;;;;4934749;29;20045;-87
2022/09/23 09:07:22;;;;;;;15.82;8.35;;;14.80;99.90;;;;;;4935608;29;20027;-86
2022/09/23 09:09:54;;;;;;;15.88;9.07;;;14.70;99.90;;;;;;4935315;29;20107;-88
2022/09/23 09:12:31;;;;;;;13.90;7.85;;;14.80;99.90;;;;;;4935404;29;20028;-86
2022/09/23 09:15:05;;;;;;;14.00;8.25;;;14.90;99.90;;;;;;4933066;29;20035;-85
2022/09/23 09:17:45;;;;;;;13.90;8.25;;;15.00;99.90;;;;;;4934339;29;20031;-86
2022/09/23 09:20:16;;;;;;;14.38;8.52;;;15.10;99.90;;;;;;4934401;29;20024;-88
2022/09/23 09:22:47;;;;;;;20.75;9.68;;;15.20;99.90;;;;;;4934378;29;20656;-86
2022/09/23 09:25:35;;;;;;;16.67;9.45;;;15.10;99.90;;;;;;4934381;29;20122;-88
2022/09/23 09:28:10;;;;;;;21.30;12.13;;;15.20;99.90;;;;;;4933230;29;20024;-87
2022/09/23 09:30:36;;;;;;;30.20;13.65;;;15.30;99.90;;;;;;4934688;29;20039;-87
2022/09/23 09:33:05;;;;;;;22.08;12.02;;;15.20;99.90;;;;;;4934133;29;20043;-88
2022/09/23 09:35:37;;;;;;;21.77;11.25;;;15.20;99.90;;;;;;4934089;29;20392;-87
2022/09/23 09:38:04;;;;;;;27.38;12.25;;;15.30;99.90;;;;;;4934255;29;20035;-88
2022/09/23 09:40:30;;;;;;;32.75;14.15;;;15.40;99.90;;;;;;4933990;29;20035;-87
2022/09/23 09:42:56;;;;;;;20.50;12.20;;;15.30;99.90;;;;;;4932743;29;20039;-87
2022/09/23 09:45:25;;;;;;;26.10;13.90;;;15.50;99.90;;;;;;4934748;29;20028;-88
2022/09/23 09:48:09;;;;;;;24.60;13.20;;;15.60;99.90;;;;;;4934774;29;20110;-87
2022/09/23 09:50:52;;;;;;;33.15;15.10;;;15.70;99.90;;;;;;4932618;29;20485;-87
2022/09/23 09:53:22;;;;;;;29.55;14.40;;;15.70;99.90;;;;;;4932605;29;20032;-87
2022/09/23 09:56:05;;;;;;;24.55;13.65;;;15.70;99.90;;;;;;4933678;29;20031;-87
2022/09/23 09:58:48;;;;;;;32.67;15.32;;;15.80;99.90;;;;;;4933826;29;20028;-87
2022/09/23 10:01:34;;;;;;;30.38;16.38;;;15.90;99.90;;;;;;4933785;29;20079;-88
2022/09/23 10:04:02;;;;;;;33.95;17.23;;;16.00;99.90;;;;;;4933490;29;20028;-87
2022/09/23 10:06:31;;;;;;;32.60;17.92;;;15.70;99.90;;;;;;4933845;29;20024;-87
2022/09/23 10:09:15;;;;;;;34.38;16.55;;;15.80;99.90;;;;;;4932290;29;20099;-88
2022/09/23 10:12:00;;;;;;;34.92;16.15;;;15.80;99.90;;;;;;4932309;29;20020;-88
2022/09/23 10:14:28;;;;;;;27.58;14.18;;;15.50;99.90;;;;;;4933547;29;20043;-86
2022/09/23 10:17:04;;;;;;;29.80;14.57;;;15.50;99.90;;;;;;4934653;29;20498;-86
2022/09/23 10:19:30;;;;;;;22.88;13.50;;;15.60;99.90;;;;;;4933817;29;20480;-88
2022/09/23 10:21:59;;;;;;;28.48;13.55;;;15.70;99.90;;;;;;4935166;29;20110;-85
2022/09/23 10:24:35;;;;;;;23.17;13.00;;;15.70;99.90;;;;;;4933305;29;20030;-88
2022/09/23 10:27:07;;;;;;;23.73;13.45;;;15.80;99.90;;;;;;4933358;29;20107;-87
2022/09/23 10:29:38;;;;;;;19.55;12.20;;;15.80;99.90;;;;;;4933198;29;20020;-87
2022/09/23 10:32:26;;;;;;;21.90;13.05;;;15.90;99.90;;;;;;4933307;29;20032;-88
2022/09/23 10:34:56;;;;;;;19.55;10.45;;;15.60;99.90;;;;;;4933876;29;20032;-86
2022/09/23 10:37:48;;;;;;;19.52;10.25;;;15.40;99.90;;;;;;4932607;29;20070;-88
2022/09/23 10:46:59;;;;;;;22.88;10.55;;;15.80;99.90;;;;;;4934013;29;20066;-86
2022/09/23 10:49:07;;;;;;;17.65;10.13;;;16.00;99.90;;;;;;4926406;29;20079;-87
2022/09/23 10:52:11;;;;;;;18.70;10.20;;;16.20;99.90;;;;;;4932961;29;20023;-86
2022/09/23 10:54:55;;;;;;;21.48;12.18;;;16.40;99.90;;;;;;4932738;29;20035;-86
2022/09/23 10:57:44;;;;;;;16.58;11.20;;;16.50;99.90;;;;;;4931797;29;20071;-86
2022/09/23 11:00:11;;;;;;;19.80;12.30;;;;;;;;;;4932731;29;20039;-85
2022/09/23 11:03:00;;;;;;;19.90;12.15;;;16.70;99.90;;;;;;4932649;29;20119;-88
2022/09/23 11:05:32;;;;;;;15.77;11.27;;;16.80;99.90;;;;;;4897069;29;20095;-88
2022/09/23 11:08:26;;;;;;;18.30;11.70;;;16.90;99.90;;;;;;4931754;29;20032;-84
2022/09/23 11:10:54;;;;;;;18.50;11.38;;;17.00;99.90;;;;;;4932070;29;20043;-87
2022/09/23 11:13:34;;;;;;;19.55;10.70;;;17.00;99.90;;;;;;4932691;29;20032;-88
2022/09/23 11:16:05;;;;;;;14.27;10.57;;;17.10;99.90;;;;;;4932558;29;20027;-87
2022/09/23 11:18:49;;;;;;;16.25;10.15;;;17.00;99.90;;;;;;4931205;29;20474;-88
2022/09/23 11:21:33;;;;;;;17.67;9.95;;;17.10;99.90;;;;;;4932519;29;20492;-87
2022/09/23 11:24:14;;;;;;;15.43;10.68;;;17.10;99.90;;;;;;4932686;29;20035;-85
2022/09/23 11:27:13;;;;;;;18.40;10.63;;;17.00;99.90;;;;;;4932329;29;20039;-87
2022/09/23 11:29:41;;;;;;;23.83;11.10;;;17.00;99.90;;;;;;4932441;29;20056;-87
2022/09/23 11:32:09;;;;;;;;;;;17.00;99.90;;;;;;4931333;29;20480;-88
2022/09/23 11:34:55;;;;;;;19.17;9.50;;;17.10;99.90;;;;;;4932047;29;19921;-87
2022/09/23 11:37:29;;;;;;;21.52;11.18;;;17.30;99.90;;;;;;4932308;29;20087;-86
2022/09/23 11:40:30;;;;;;;21.80;10.23;;;17.50;99.90;;;;;;4933040;29;20039;-87
2022/09/23 11:43:06;;;;;;;17.52;10.30;;;17.60;99.90;;;;;;4902676;29;20046;-88
2022/09/23 11:46:03;;;;;;;18.48;10.25;;;17.50;99.90;;;;;;4930715;29;20024;-87
2022/09/23 11:48:39;;;;;;;20.00;10.30;;;17.40;99.90;;;;;;4933049;29;20044;-87
2022/09/23 11:51:14;;;;;;;15.68;9.43;;;17.50;99.90;;;;;;4931934;29;20102;-88
2022/09/23 11:54:12;;;;;;;18.48;10.48;;;17.60;99.90;;;;;;4932040;29;20047;-87
2022/09/23 11:56:46;;;;;;;16.77;10.07;;;17.60;99.90;;;;;;4920567;29;20068;-88
2022/09/23 11:59:20;;;;;;;17.00;10.43;;;17.60;99.90;;;;;;4932337;29;20028;-87
2022/09/23 12:02:02;;;;;;;18.08;11.10;;;17.70;99.90;;;;;;4931207;29;20031;-87
2022/09/23 12:04:42;;;;;;;22.85;11.23;;;17.70;99.90;;;;;;4932775;29;20031;-87
2022/09/23 12:07:08;;;;;;;17.20;10.90;;;;;;;;;;4931754;29;20130;-87
2022/09/23 12:10:05;;;;;;;17.98;10.02;;;17.80;99.90;;;;;;4931997;29;20032;-87
2022/09/23 12:12:48;;;;;;;17.67;11.20;;;17.80;99.90;;;;;;4931245;29;20032;-87
2022/09/23 12:15:41;;;;;;;21.05;10.50;;;18.00;99.90;;;;;;4930156;29;20036;-86
2022/09/23 12:18:12;;;;;;;18.60;10.32;;;18.00;99.90;;;;;;4930416;29;20038;-87
2022/09/23 12:20:41;;;;;;;20.77;10.75;;;18.00;99.90;;;;;;4930603;29;20563;-89
2022/09/23 12:23:15;;;;;;;22.23;10.82;;;18.00;99.90;;;;;;4932480;29;20032;-86
2022/09/23 12:25:51;;;;;;;16.60;10.05;;;18.10;99.90;;;;;;4935483;29;20064;-88
2022/09/23 12:28:28;;;;;;;15.93;10.40;;;18.10;99.90;;;;;;4935665;29;20032;-87
2022/09/23 12:30:57;;;;;;;19.73;11.30;;;18.20;99.90;;;;;;4934144;29;20027;-86
2022/09/23 12:33:26;;;;;;;14.82;10.70;;;18.40;99.90;;;;;;4935203;29;20035;-86
2022/09/23 12:36:03;;;;;;;17.10;10.32;;;18.40;99.90;;;;;;4935551;29;20554;-87
2022/09/23 12:38:47;;;;;;;16.02;9.93;;;18.30;99.90;;;;;;4936227;29;20020;-86
2022/09/23 12:41:36;;;;;;;19.67;9.50;;;18.50;99.90;;;;;;4935309;29;20070;-88
2022/09/23 12:44:11;;;;;;;17.73;9.65;;;18.50;99.90;;;;;;4935899;29;20028;-87
2022/09/23 12:46:38;;;;;;;18.27;10.10;;;18.50;99.90;;;;;;4935155;29;20027;-87
2022/09/23 12:49:20;;;;;;;14.75;9.88;;;18.50;99.90;;;;;;4935164;29;20070;-85
2022/09/23 12:52:11;;;;;;;19.42;9.02;;;18.40;99.90;;;;;;4935116;29;20604;-86
2022/09/23 12:54:41;;;;;;;17.90;8.93;;;18.40;99.90;;;;;;4925535;29;20095;-88
2022/09/23 12:57:07;;;;;;;14.60;8.60;;;;;;;;;;4935929;29;20107;-87
2022/09/23 12:59:56;;;;;;;15.55;9.52;;;18.30;99.90;;;;;;4936757;29;20063;-87
2022/09/23 13:02:25;;;;;;;16.08;9.52;;;18.40;99.90;;;;;;4935913;29;20028;-87
2022/09/23 13:07:48;;;;;;;17.58;10.18;;;18.40;99.90;;;;;;4934929;29;20071;-88
2022/09/23 13:10:23;;;;;;;17.35;10.55;;;18.50;99.90;;;;;;4933387;29;20059;-87
2022/09/23 13:12:51;;;;;;;16.17;9.90;;;18.70;99.90;;;;;;4934803;29;20031;-86
2022/09/23 13:15:27;;;;;;;17.73;9.88;;;18.80;99.90;;;;;;4935093;29;20039;-87
2022/09/23 13:18:19;;;;;;;18.38;10.50;;;18.30;99.90;;;;;;4933218;29;20040;-87
2022/09/23 13:20:47;;;;;;;20.58;9.82;;;18.20;99.90;;;;;;4934500;29;20032;-86
2022/09/23 13:23:32;;;;;;;22.88;10.85;;;18.20;99.90;;;;;;4934563;29;20030;-86
2022/09/23 13:26:09;;;;;;;20.42;10.82;;;18.40;99.90;;;;;;4934491;29;20078;-85
2022/09/23 13:28:55;;;;;;;21.90;10.10;;;18.30;99.90;;;;;;4933796;29;20369;-87
2022/09/23 13:31:21;;;;;;;14.73;9.82;;;;;;;;;;4934328;29;20032;-86
2022/09/23 13:33:58;;;;;;;19.55;9.70;;;18.80;99.90;;;;;;4933682;29;20559;-88